Time;durP1;ratioP1;P1;durP2;ratioP2;P2;SDS_P1;SDS_P2;PMS_P1;PMS_P2;Temp;Humidity;BMP_temperature;BMP_pressure;BME280_temperature;BME280_humidity;BME280_pressure;Samples;Min_cycle;Max_cycle;Signal;HPM_P1;HPM_P2
2023/10/27 00:00:54;;;;;;;2.63;1.85;;;18.20;69.70;;;;;;5048219;28;20041;-54
2023/10/27 00:03:19;;;;;;;2.30;1.70;;;18.20;69.70;;;;;;5047906;28;20033;-57
2023/10/27 00:05:45;;;;;;;2.40;1.50;;;18.20;69.70;;;;;;5045469;28;20029;-57
2023/10/27 00:08:11;;;;;;;2.80;1.60;;;18.20;70.30;;;;;;5047270;28;20036;-56
2023/10/27 00:10:37;;;;;;;2.50;1.73;;;18.20;69.70;;;;;;5049670;28;20568;-54
2023/10/27 00:13:02;;;;;;;2.28;2.00;;;18.20;69.70;;;;;;5044187;28;20108;-56
2023/10/27 00:15:27;;;;;;;2.60;1.92;;;18.20;69.70;;;;;;5046617;28;20041;-55
2023/10/27 00:17:56;;;;;;;2.10;1.67;;;18.20;69.70;;;;;;5048694;28;20055;-55
2023/10/27 00:20:22;;;;;;;2.60;1.58;;;18.20;69.70;;;;;;5044911;28;20969;-55
2023/10/27 00:22:48;;;;;;;2.80;1.85;;;18.20;69.70;;;;;;5049732;28;20501;-56
2023/10/27 00:25:13;;;;;;;2.20;1.65;;;18.20;69.70;;;;;;5048260;28;20041;-55
2023/10/27 00:27:39;;;;;;;2.20;1.60;;;18.20;69.70;;;;;;5049341;28;20033;-57
2023/10/27 00:30:06;;;;;;;1.92;1.35;;;18.20;69.70;;;;;;5044629;28;20020;-55
2023/10/27 00:32:32;;;;;;;1.63;1.45;;;18.10;69.60;;;;;;5044419;28;20037;-56
2023/10/27 00:34:57;;;;;;;2.08;1.45;;;18.20;69.70;;;;;;5046697;28;20028;-56
2023/10/27 00:37:23;;;;;;;2.67;1.50;;;18.20;70.30;;;;;;5041399;28;20036;-56
2023/10/27 00:39:49;;;;;;;1.65;1.30;;;18.20;69.70;;;;;;5053181;28;20036;-56
2023/10/27 00:42:14;;;;;;;1.40;1.30;;;18.20;69.70;;;;;;5048200;28;20039;-56
2023/10/27 00:44:40;;;;;;;1.90;1.50;;;18.20;69.60;;;;;;5046028;28;20036;-55
2023/10/27 00:47:06;;;;;;;1.70;1.30;;;18.20;69.70;;;;;;5047565;28;20174;-54
2023/10/27 00:49:32;;;;;;;1.98;1.75;;;18.20;69.70;;;;;;5045992;28;20025;-56
2023/10/27 00:51:57;;;;;;;1.83;1.67;;;18.20;69.60;;;;;;5052883;28;20024;-56
2023/10/27 00:54:25;;;;;;;1.77;1.45;;;18.20;69.70;;;;;;5053498;28;20130;-56
2023/10/27 00:56:51;;;;;;;1.52;1.35;;;18.10;69.60;;;;;;5043875;28;20421;-54
2023/10/27 00:59:16;;;;;;;1.77;1.30;;;18.20;69.70;;;;;;5048696;28;20021;-56
2023/10/27 01:01:42;;;;;;;1.50;1.40;;;18.20;69.60;;;;;;5046867;28;20072;-56
2023/10/27 01:04:08;;;;;;;1.63;1.40;;;18.20;69.60;;;;;;5047722;28;20089;-55
2023/10/27 01:06:34;;;;;;;1.33;1.23;;;18.10;69.60;;;;;;5050411;28;20044;-56
2023/10/27 01:09:00;;;;;;;1.55;1.35;;;18.10;69.60;;;;;;5051072;28;20613;-56
2023/10/27 01:11:26;;;;;;;1.40;1.20;;;18.10;69.60;;;;;;5049322;28;20045;-55
2023/10/27 01:13:52;;;;;;;2.20;1.77;;;18.20;69.60;;;;;;5050408;28;20481;-56
2023/10/27 01:16:18;;;;;;;2.08;1.33;;;18.10;69.60;;;;;;5043771;28;20029;-54
2023/10/27 01:18:43;;;;;;;1.83;1.67;;;18.10;69.60;;;;;;5046525;28;20516;-56
2023/10/27 01:21:09;;;;;;;1.73;1.50;;;18.10;69.60;;;;;;5044220;28;20047;-55
2023/10/27 01:23:35;;;;;;;1.67;1.45;;;18.10;69.60;;;;;;5045311;28;20024;-56
2023/10/27 01:26:00;;;;;;;2.13;1.48;;;18.20;69.70;;;;;;5045724;28;20691;-56
2023/10/27 01:28:26;;;;;;;1.40;1.30;;;18.10;69.60;;;;;;5050015;28;20025;-55
2023/10/27 01:30:51;;;;;;;1.73;1.30;;;18.10;69.60;;;;;;5045363;28;20041;-55
2023/10/27 01:33:17;;;;;;;1.35;1.25;;;18.10;69.70;;;;;;5046997;28;20064;-56
2023/10/27 01:35:42;;;;;;;1.88;1.45;;;18.10;69.60;;;;;;5049742;28;21333;-54
2023/10/27 01:38:08;;;;;;;1.73;1.52;;;18.10;69.60;;;;;;5052477;28;20048;-56
2023/10/27 01:40:33;;;;;;;2.05;1.40;;;18.10;69.60;;;;;;5048092;28;20040;-54
2023/10/27 01:42:59;;;;;;;2.30;1.58;;;18.10;69.60;;;;;;5045840;28;20039;-56
2023/10/27 01:45:24;;;;;;;1.30;1.20;;;18.10;69.60;;;;;;5049103;28;20080;-55
2023/10/27 01:47:50;;;;;;;1.15;1.05;;;18.10;69.60;;;;;;5044826;28;20510;-57
2023/10/27 01:50:15;;;;;;;1.10;1.00;;;18.10;69.60;;;;;;5047410;28;20572;-56
2023/10/27 01:52:41;;;;;;;1.88;1.42;;;18.10;69.60;;;;;;5044725;28;20643;-55
2023/10/27 01:55:07;;;;;;;1.25;1.02;;;18.10;69.60;;;;;;5047011;28;20025;-55
2023/10/27 01:57:32;;;;;;;1.10;1.00;;;18.10;69.60;;;;;;5049787;28;20093;-54
2023/10/27 01:59:58;;;;;;;2.00;1.27;;;18.10;69.60;;;;;;5047743;28;20128;-56
2023/10/27 02:02:24;;;;;;;1.30;1.17;;;18.10;69.60;;;;;;5050697;28;20049;-53
2023/10/27 02:04:49;;;;;;;1.20;1.10;;;18.10;69.60;;;;;;5050005;28;20045;-55
2023/10/27 02:07:15;;;;;;;2.30;1.25;;;18.10;69.60;;;;;;5051200;28;20064;-55
2023/10/27 02:09:40;;;;;;;1.73;1.38;;;18.10;69.60;;;;;;5049052;28;20033;-53
2023/10/27 02:12:10;;;;;;;1.40;1.02;;;18.10;69.60;;;;;;5048041;28;20421;-55
2023/10/27 02:14:37;;;;;;;1.20;1.08;;;18.10;69.60;;;;;;5046809;28;20053;-51
2023/10/27 02:17:02;;;;;;;1.48;1.35;;;18.10;69.60;;;;;;5049904;28;20063;-56
2023/10/27 02:19:28;;;;;;;1.42;1.20;;;18.10;69.60;;;;;;5050946;28;20165;-53
2023/10/27 02:21:53;;;;;;;1.10;1.00;;;18.10;69.60;;;;;;5046523;28;20117;-53
2023/10/27 02:24:19;;;;;;;1.10;1.00;;;18.10;69.60;;;;;;5049417;28;20041;-53
2023/10/27 02:26:44;;;;;;;1.27;1.08;;;18.10;69.60;;;;;;5047944;28;20043;-58
2023/10/27 02:29:10;;;;;;;1.20;1.10;;;18.10;69.60;;;;;;5050647;28;20239;-52
2023/10/27 02:31:36;;;;;;;1.00;0.90;;;18.20;69.70;;;;;;5048345;28;20040;-52
2023/10/27 02:34:01;;;;;;;1.13;1.02;;;18.10;69.60;;;;;;5049506;28;20116;-52
2023/10/27 02:36:27;;;;;;;2.70;1.33;;;18.10;69.60;;;;;;5053922;28;20032;-56
2023/10/27 02:38:52;;;;;;;1.30;1.20;;;18.10;69.60;;;;;;5047008;28;20025;-52
2023/10/27 02:41:18;;;;;;;1.30;1.20;;;18.10;69.60;;;;;;5044519;28;20040;-56
2023/10/27 02:43:44;;;;;;;1.00;0.90;;;18.20;69.60;;;;;;5047441;28;20020;-52
2023/10/27 02:46:12;;;;;;;1.17;0.98;;;18.10;69.60;;;;;;5047128;28;20600;-56
2023/10/27 02:48:40;;;;;;;1.35;0.90;;;18.10;69.60;;;;;;5046579;28;20036;-55
2023/10/27 02:51:06;;;;;;;1.02;0.90;;;18.10;69.60;;;;;;5044922;28;20609;-53
2023/10/27 02:53:31;;;;;;;0.85;0.82;;;18.10;69.60;;;;;;5048775;28;20032;-56
2023/10/27 02:56:04;;;;;;;1.27;1.17;;;18.10;69.60;;;;;;5049652;28;20548;-51
2023/10/27 02:58:30;;;;;;;0.80;0.77;;;18.10;69.60;;;;;;5051087;28;20029;-59
2023/10/27 03:00:55;;;;;;;0.77;0.73;;;18.10;69.60;;;;;;5049360;28;20040;-57
2023/10/27 03:03:21;;;;;;;0.82;0.82;;;18.10;69.60;;;;;;5051399;28;20746;-57
2023/10/27 03:05:46;;;;;;;1.27;0.90;;;18.10;69.60;;;;;;5049822;28;20035;-56
2023/10/27 03:08:12;;;;;;;0.82;0.80;;;18.10;69.70;;;;;;5050624;28;20032;-57
2023/10/27 03:10:37;;;;;;;0.95;0.85;;;18.10;69.60;;;;;;5048931;28;20052;-57
2023/10/27 03:13:08;;;;;;;1.20;0.85;;;18.10;69.60;;;;;;5052797;28;20027;-53
2023/10/27 03:15:34;;;;;;;1.67;1.00;;;18.10;69.60;;;;;;5049860;28;20032;-54
2023/10/27 03:17:59;;;;;;;0.80;0.80;;;18.10;69.60;;;;;;5047726;28;20033;-55
2023/10/27 03:20:25;;;;;;;0.93;0.80;;;18.10;69.60;;;;;;5050825;28;20060;-55
2023/10/27 03:22:50;;;;;;;0.98;0.90;;;18.10;69.60;;;;;;5047562;28;20072;-58
2023/10/27 03:25:16;;;;;;;0.90;0.77;;;18.10;69.70;;;;;;5053103;28;20052;-53
2023/10/27 03:27:42;;;;;;;0.60;0.60;;;18.10;69.60;;;;;;5052603;28;20444;-56
2023/10/27 03:30:08;;;;;;;0.80;0.70;;;18.10;69.60;;;;;;5048534;28;20109;-54
2023/10/27 03:32:34;;;;;;;1.02;0.93;;;18.10;69.60;;;;;;5051782;28;20037;-55
2023/10/27 03:35:00;;;;;;;0.63;0.63;;;18.10;69.60;;;;;;5055174;28;20053;-54
2023/10/27 03:37:26;;;;;;;1.00;0.70;;;18.10;69.60;;;;;;5053814;28;20040;-53
2023/10/27 03:39:51;;;;;;;1.15;0.60;;;18.10;69.60;;;;;;5049520;28;20039;-53
2023/10/27 03:42:17;;;;;;;0.95;0.93;;;18.10;69.60;;;;;;5051838;28;20435;-58
2023/10/27 03:44:42;;;;;;;1.00;0.85;;;18.10;69.60;;;;;;5044994;28;20029;-58
2023/10/27 03:47:09;;;;;;;0.80;0.70;;;18.10;69.60;;;;;;5047966;28;20021;-53
2023/10/27 03:49:34;;;;;;;0.98;0.77;;;18.10;69.60;;;;;;5050493;28;20766;-58
2023/10/27 03:52:00;;;;;;;0.65;0.60;;;18.10;69.60;;;;;;5050729;28;20041;-52
2023/10/27 03:54:26;;;;;;;0.50;0.50;;;18.10;69.60;;;;;;5056334;28;20028;-55
2023/10/27 03:56:51;;;;;;;0.52;0.52;;;18.10;69.60;;;;;;5049933;28;20033;-56
2023/10/27 03:59:19;;;;;;;0.50;0.50;;;18.10;70.20;;;;;;5051924;28;20029;-55
2023/10/27 04:01:45;;;;;;;0.73;0.73;;;18.10;69.60;;;;;;5053693;28;20032;-58
2023/10/27 04:04:11;;;;;;;1.30;0.95;;;18.10;69.60;;;;;;5050991;28;20021;-56
2023/10/27 04:06:37;;;;;;;1.13;0.80;;;18.10;69.60;;;;;;5051790;28;20052;-53
2023/10/27 04:09:04;;;;;;;0.50;0.50;;;18.10;69.60;;;;;;5050806;28;20505;-54
2023/10/27 04:11:29;;;;;;;0.60;0.60;;;18.10;69.60;;;;;;5050324;28;20044;-57
2023/10/27 04:13:55;;;;;;;0.47;0.40;;;18.10;69.60;;;;;;5045658;28;20032;-52
2023/10/27 04:16:20;;;;;;;1.05;0.65;;;18.10;69.60;;;;;;5047492;28;20545;-52
2023/10/27 04:18:46;;;;;;;0.50;0.40;;;18.10;69.60;;;;;;5048388;28;20035;-57
2023/10/27 04:21:11;;;;;;;0.88;0.70;;;18.10;69.60;;;;;;5049274;28;20037;-57
2023/10/27 04:23:37;;;;;;;0.68;0.50;;;18.10;69.60;;;;;;5046110;28;20029;-52
2023/10/27 04:26:02;;;;;;;0.98;0.88;;;18.10;69.60;;;;;;5053616;28;20040;-57
2023/10/27 04:28:28;;;;;;;0.70;0.70;;;18.10;69.60;;;;;;5044916;28;20032;-58
2023/10/27 04:30:53;;;;;;;0.73;0.52;;;18.10;69.60;;;;;;5051858;28;20111;-54
2023/10/27 04:33:21;;;;;;;0.50;0.50;;;18.10;69.60;;;;;;5051497;28;20064;-57
2023/10/27 04:35:48;;;;;;;0.77;0.75;;;18.10;69.60;;;;;;5051255;28;20390;-54
2023/10/27 04:38:14;;;;;;;0.70;0.70;;;18.10;69.60;;;;;;5052396;28;20677;-56
2023/10/27 04:40:39;;;;;;;0.60;0.60;;;18.10;69.60;;;;;;5051367;28;20052;-58
2023/10/27 04:43:05;;;;;;;1.00;0.70;;;18.10;69.60;;;;;;5043864;28;20037;-57
2023/10/27 04:45:30;;;;;;;0.52;0.52;;;18.10;69.60;;;;;;5048641;28;20029;-58
2023/10/27 04:47:56;;;;;;;0.57;0.52;;;18.10;69.60;;;;;;5049377;28;20155;-56
2023/10/27 04:50:22;;;;;;;0.65;0.65;;;18.10;69.60;;;;;;5050127;28;20130;-57
2023/10/27 04:52:47;;;;;;;1.02;0.60;;;18.10;69.60;;;;;;5048708;28;20611;-57
2023/10/27 04:55:13;;;;;;;0.60;0.60;;;18.10;69.60;;;;;;5055391;28;20260;-57
2023/10/27 04:57:39;;;;;;;0.70;0.70;;;18.10;69.60;;;;;;5055426;28;20024;-55
2023/10/27 05:02:36;;;;;;;0.68;0.60;;;18.10;69.70;;;;;;5034133;28;20675;-55
2023/10/27 05:05:02;;;;;;;1.67;0.75;;;18.10;69.70;;;;;;5037613;28;20090;-58
2023/10/27 05:07:28;;;;;;;0.43;0.43;;;18.10;69.60;;;;;;5038632;28;20553;-54
2023/10/27 05:09:53;;;;;;;0.60;0.52;;;18.10;69.70;;;;;;5033885;28;20037;-57
2023/10/27 05:12:19;;;;;;;1.98;0.82;;;18.10;69.70;;;;;;5030967;28;20651;-55
2023/10/27 05:14:44;;;;;;;1.67;0.57;;;18.10;69.70;;;;;;5027314;28;20037;-56
2023/10/27 05:17:10;;;;;;;0.82;0.70;;;18.10;69.70;;;;;;5030132;28;20091;-52
2023/10/27 05:19:36;;;;;;;1.35;0.80;;;18.10;69.70;;;;;;5027959;28;20083;-58
2023/10/27 05:22:04;;;;;;;1.38;0.73;;;18.10;69.80;;;;;;5031942;28;20508;-55
2023/10/27 05:24:30;;;;;;;1.00;0.52;;;18.10;69.80;;;;;;5032382;28;20495;-58
2023/10/27 05:26:56;;;;;;;1.77;0.75;;;18.10;69.80;;;;;;5036489;28;20041;-55
2023/10/27 05:29:21;;;;;;;1.52;0.80;;;18.00;69.80;;;;;;5030253;28;20060;-55
2023/10/27 05:31:47;;;;;;;1.73;0.80;;;18.10;69.90;;;;;;5035344;28;20038;-56
2023/10/27 05:34:12;;;;;;;1.02;0.93;;;18.10;69.90;;;;;;5038059;28;20052;-54
2023/10/27 05:36:38;;;;;;;1.00;0.90;;;18.10;69.90;;;;;;5035446;28;20053;-54
2023/10/27 05:39:04;;;;;;;1.02;0.90;;;18.10;69.90;;;;;;5033860;28;20025;-55
2023/10/27 05:41:29;;;;;;;1.35;0.90;;;18.10;69.90;;;;;;5033549;28;20026;-57
2023/10/27 05:43:55;;;;;;;1.60;1.10;;;18.00;69.80;;;;;;5028857;28;20056;-53
2023/10/27 05:46:21;;;;;;;1.00;0.93;;;18.10;69.90;;;;;;5031774;28;20033;-55
2023/10/27 05:48:46;;;;;;;4.13;1.40;;;18.10;69.80;;;;;;5030400;28;20033;-55
2023/10/27 05:51:12;;;;;;;1.38;0.85;;;18.10;69.90;;;;;;5034985;28;20039;-54
2023/10/27 05:53:38;;;;;;;1.48;1.10;;;18.10;69.80;;;;;;5035117;28;20031;-56
2023/10/27 05:56:04;;;;;;;2.47;1.00;;;18.10;69.80;;;;;;5035712;28;20036;-58
2023/10/27 05:58:32;;;;;;;1.48;1.38;;;18.10;69.80;;;;;;5026928;28;20033;-57
2023/10/27 06:01:01;;;;;;;1.40;1.00;;;18.00;69.80;;;;;;5036427;28;20033;-54
2023/10/27 06:03:27;;;;;;;1.70;1.10;;;18.10;69.80;;;;;;5035365;28;20078;-56
2023/10/27 06:05:53;;;;;;;1.45;1.02;;;18.10;69.90;;;;;;5035293;28;20045;-57
2023/10/27 06:08:19;;;;;;;1.90;1.27;;;18.00;69.70;;;;;;5033242;28;20021;-53
2023/10/27 06:10:45;;;;;;;1.50;0.98;;;18.10;69.80;;;;;;5031250;28;20029;-57
2023/10/27 06:13:12;;;;;;;2.15;0.90;;;18.10;69.80;;;;;;5028937;28;20044;-52
2023/10/27 06:15:37;;;;;;;1.92;1.40;;;18.00;69.80;;;;;;5028686;28;20057;-55
2023/10/27 06:18:03;;;;;;;2.75;1.00;;;18.10;69.80;;;;;;5016901;28;20491;-57
2023/10/27 06:20:29;;;;;;;2.25;1.05;;;18.10;69.80;;;;;;5029574;28;20031;-58
2023/10/27 06:22:54;;;;;;;1.67;1.20;;;18.00;69.80;;;;;;5031026;28;20064;-53
2023/10/27 06:25:20;;;;;;;2.03;1.60;;;18.10;69.80;;;;;;5029691;28;20081;-58
2023/10/27 06:27:46;;;;;;;4.60;1.60;;;18.10;70.00;;;;;;5032564;28;20087;-54
2023/10/27 06:30:11;;;;;;;5.18;1.92;;;18.10;70.00;;;;;;5034795;28;20036;-55
2023/10/27 06:32:37;;;;;;;2.70;1.65;;;18.10;70.10;;;;;;5035867;28;20446;-53
2023/10/27 06:35:03;;;;;;;3.38;1.90;;;18.10;70.10;;;;;;5036861;28;20638;-53
2023/10/27 06:37:30;;;;;;;3.58;1.85;;;18.10;70.20;;;;;;5032868;28;20460;-54
2023/10/27 06:39:58;;;;;;;8.38;2.20;;;18.10;70.30;;;;;;5029855;28;20025;-57
2023/10/27 06:42:25;;;;;;;5.30;2.00;;;18.10;70.20;;;;;;5029700;28;20698;-55
2023/10/27 06:44:51;;;;;;;3.58;2.03;;;18.10;70.20;;;;;;5036402;28;20489;-55
2023/10/27 06:47:18;;;;;;;3.85;2.30;;;18.10;70.20;;;;;;5035060;28;20030;-55
2023/10/27 06:49:44;;;;;;;3.63;2.10;;;18.10;70.20;;;;;;5028889;28;20087;-57
2023/10/27 06:52:10;;;;;;;3.65;2.20;;;18.00;70.20;;;;;;5031494;28;20029;-57
2023/10/27 06:54:35;;;;;;;5.70;2.38;;;18.10;70.30;;;;;;5030480;28;20452;-53
2023/10/27 06:57:01;;;;;;;4.68;1.80;;;18.10;70.30;;;;;;5024912;28;20026;-55
2023/10/27 06:59:28;;;;;;;4.22;2.42;;;18.10;70.30;;;;;;5037752;28;20052;-56
2023/10/27 07:01:54;;;;;;;5.43;2.17;;;18.10;70.30;;;;;;5038933;28;20453;-58
2023/10/27 07:04:20;;;;;;;3.38;1.83;;;18.10;70.20;;;;;;5038917;28;20026;-52
2023/10/27 07:06:46;;;;;;;5.28;2.35;;;18.10;70.20;;;;;;5031350;28;20037;-53
2023/10/27 07:09:11;;;;;;;4.57;2.20;;;18.10;70.20;;;;;;5031888;28;20028;-56
2023/10/27 07:11:38;;;;;;;5.38;1.95;;;18.10;70.20;;;;;;5032183;28;20059;-58
2023/10/27 07:14:04;;;;;;;4.63;2.28;;;18.10;70.20;;;;;;5031804;28;20041;-53
2023/10/27 07:16:29;;;;;;;3.42;2.20;;;18.10;70.20;;;;;;5032411;28;21584;-55
2023/10/27 07:18:56;;;;;;;3.30;1.92;;;18.10;70.30;;;;;;5027741;28;20039;-57
2023/10/27 07:21:21;;;;;;;4.07;2.40;;;18.10;70.30;;;;;;5034163;28;20044;-56
2023/10/27 07:23:47;;;;;;;4.75;2.08;;;18.10;70.30;;;;;;5035485;28;20025;-56
2023/10/27 07:26:14;;;;;;;5.97;2.08;;;18.10;70.20;;;;;;5034787;28;20095;-58
2023/10/27 07:28:40;;;;;;;6.35;2.58;;;18.10;70.20;;;;;;5040259;28;20036;-57
2023/10/27 07:31:08;;;;;;;2.70;1.67;;;18.10;70.20;;;;;;5035312;28;20441;-55
2023/10/27 07:33:33;;;;;;;2.55;1.75;;;18.00;70.20;;;;;;5037895;28;20697;-57
2023/10/27 07:36:00;;;;;;;3.85;1.60;;;18.10;70.20;;;;;;5032570;28;20037;-57
2023/10/27 07:38:26;;;;;;;4.22;1.88;;;18.10;70.20;;;;;;5030996;28;20087;-52
2023/10/27 07:40:56;;;;;;;3.97;2.40;;;18.10;70.20;;;;;;5032727;28;20029;-57
2023/10/27 07:43:21;;;;;;;6.78;2.35;;;18.00;70.10;;;;;;5029508;28;20162;-57
2023/10/27 07:45:48;;;;;;;3.65;1.60;;;18.10;70.20;;;;;;5033402;28;20132;-58
2023/10/27 07:48:14;;;;;;;2.70;1.80;;;18.10;70.20;;;;;;5031898;28;20482;-59
2023/10/27 07:50:40;;;;;;;3.28;1.75;;;18.00;70.10;;;;;;5035693;28;20029;-58
2023/10/27 07:53:05;;;;;;;3.80;1.58;;;18.10;70.20;;;;;;5033255;28;20037;-58
2023/10/27 07:55:31;;;;;;;5.25;1.98;;;18.10;70.10;;;;;;5030482;28;20099;-53
2023/10/27 07:57:57;;;;;;;3.70;1.80;;;18.10;70.10;;;;;;5039220;28;20114;-51
2023/10/27 08:00:22;;;;;;;4.55;2.10;;;18.00;70.10;;;;;;5029244;28;20052;-53
2023/10/27 08:02:51;;;;;;;3.60;1.50;;;18.10;70.80;;;;;;5035499;28;20037;-58
2023/10/27 08:05:17;;;;;;;2.90;1.60;;;18.10;70.10;;;;;;5030490;28;20033;-55
2023/10/27 08:07:44;;;;;;;4.35;1.67;;;18.10;70.20;;;;;;5029932;28;20082;-54
2023/10/27 08:10:10;;;;;;;5.78;1.65;;;18.10;70.20;;;;;;5028623;28;20026;-54
2023/10/27 08:12:36;;;;;;;2.53;1.80;;;18.00;70.00;;;;;;5027025;28;20203;-53
2023/10/27 08:15:05;;;;;;;6.43;1.83;;;18.10;70.20;;;;;;5027856;28;20482;-57
2023/10/27 08:17:35;;;;;;;4.97;1.70;;;18.00;70.20;;;;;;5025272;28;20041;-56
2023/10/27 08:20:01;;;;;;;5.32;1.80;;;18.10;70.20;;;;;;5024197;28;20092;-55
2023/10/27 08:22:27;;;;;;;5.18;1.95;;;18.00;70.20;;;;;;5014180;28;20041;-55
2023/10/27 08:24:53;;;;;;;2.30;1.67;;;18.10;70.20;;;;;;5012154;28;20029;-55
2023/10/27 08:27:18;;;;;;;5.32;2.13;;;18.10;70.30;;;;;;5031693;28;20014;-53
2023/10/27 08:29:44;;;;;;;3.65;1.45;;;18.00;70.20;;;;;;5031520;28;21506;-51
2023/10/27 08:32:09;;;;;;;3.88;1.75;;;18.00;70.30;;;;;;5016114;28;20017;-51
2023/10/27 08:34:35;;;;;;;3.88;1.33;;;18.10;70.30;;;;;;5030644;28;20521;-56
2023/10/27 08:37:01;;;;;;;5.70;1.60;;;18.10;70.30;;;;;;5030870;28;20170;-54
2023/10/27 08:39:27;;;;;;;3.78;1.40;;;18.10;70.40;;;;;;5028613;28;20068;-51
2023/10/27 08:41:54;;;;;;;4.88;1.50;;;18.10;70.40;;;;;;5025583;28;20104;-54
2023/10/27 08:44:20;;;;;;;3.08;1.60;;;18.10;70.40;;;;;;5013170;28;20427;-55
2023/10/27 08:46:47;;;;;;;3.40;1.45;;;18.10;70.30;;;;;;5029437;28;20131;-56
2023/10/27 08:49:13;;;;;;;4.32;1.88;;;18.10;70.30;;;;;;5026162;28;20033;-54
2023/10/27 08:51:39;;;;;;;4.28;1.17;;;18.10;70.40;;;;;;5030958;28;20481;-53
2023/10/27 08:54:05;;;;;;;1.58;1.02;;;18.10;70.40;;;;;;5032954;28;20034;-52
2023/10/27 08:56:31;;;;;;;4.82;1.80;;;18.10;70.40;;;;;;5032027;28;20029;-58
2023/10/27 08:58:58;;;;;;;3.88;1.42;;;18.10;70.40;;;;;;5029813;28;20032;-53
2023/10/27 09:01:25;;;;;;;2.53;1.40;;;18.10;70.40;;;;;;5028108;28;20091;-59
2023/10/27 09:04:13;;;;;;;3.65;1.83;;;18.10;70.40;;;;;;5030798;28;20087;-56
2023/10/27 09:06:39;;;;;;;4.18;1.48;;;18.10;70.40;;;;;;5028724;28;20145;-53
2023/10/27 09:09:06;;;;;;;3.55;1.40;;;18.10;70.40;;;;;;5009798;28;20036;-55
2023/10/27 09:11:40;;;;;;;2.45;1.35;;;18.10;70.30;;;;;;5028958;28;20033;-52
2023/10/27 09:14:18;;;;;;;2.75;1.20;;;18.10;70.40;;;;;;5032963;28;20032;-60
2023/10/27 09:16:43;;;;;;;2.75;1.35;;;18.10;70.40;;;;;;5029238;28;20032;-53
2023/10/27 09:19:27;;;;;;;1.75;1.27;;;18.10;70.30;;;;;;5024424;28;20029;-54
2023/10/27 09:21:53;;;;;;;3.53;1.15;;;18.10;70.30;;;;;;5031606;28;20568;-56
2023/10/27 09:24:26;;;;;;;4.13;1.38;;;18.10;70.30;;;;;;4999781;28;20474;-55
2023/10/27 09:26:56;;;;;;;2.25;0.88;;;18.10;70.30;;;;;;5032580;28;20064;-56
2023/10/27 09:29:22;;;;;;;5.68;1.15;;;18.10;70.30;;;;;;5028571;28;20029;-55
2023/10/27 09:31:50;;;;;;;3.35;0.95;;;18.10;70.30;;;;;;5031615;28;20038;-56
2023/10/27 09:34:26;;;;;;;2.55;1.00;;;18.10;70.20;;;;;;5026223;28;20445;-55
2023/10/27 09:36:57;;;;;;;3.08;1.05;;;18.10;70.30;;;;;;5027766;28;20029;-52
2023/10/27 09:39:23;;;;;;;1.90;1.20;;;18.10;70.40;;;;;;5026747;28;20198;-58
2023/10/27 09:42:02;;;;;;;3.88;1.13;;;18.10;70.30;;;;;;5023741;28;20029;-55
2023/10/27 09:44:53;;;;;;;1.80;1.00;;;18.10;70.30;;;;;;5028479;28;20076;-54
2023/10/27 09:47:34;;;;;;;1.80;0.90;;;18.10;70.30;;;;;;5028262;28;20053;-56
2023/10/27 09:50:06;;;;;;;1.45;1.02;;;18.10;70.30;;;;;;5025165;28;20022;-51
2023/10/27 09:52:33;;;;;;;3.15;1.10;;;18.10;70.40;;;;;;5033984;28;20084;-55
2023/10/27 09:55:00;;;;;;;2.22;0.85;;;18.10;70.40;;;;;;5029475;28;20021;-56
2023/10/27 09:57:27;;;;;;;1.80;1.30;;;18.10;70.30;;;;;;5029745;28;20048;-56
2023/10/27 09:59:54;;;;;;;3.38;1.30;;;18.10;70.30;;;;;;5031767;28;20022;-57
2023/10/27 10:02:23;;;;;;;2.38;1.00;;;18.10;70.40;;;;;;5031247;28;20038;-55
2023/10/27 10:04:51;;;;;;;1.27;0.98;;;18.10;70.40;;;;;;5031784;28;20017;-52
2023/10/27 10:07:27;;;;;;;5.32;1.00;;;18.10;70.30;;;;;;5028053;28;20117;-55
2023/10/27 10:09:52;;;;;;;2.42;1.45;;;18.10;70.30;;;;;;5026706;28;20032;-53
2023/10/27 10:12:18;;;;;;;2.45;1.38;;;18.10;70.30;;;;;;5023423;28;20030;-53
2023/10/27 10:14:45;;;;;;;2.15;1.25;;;18.10;70.40;;;;;;5027079;28;20116;-55
2023/10/27 10:17:10;;;;;;;1.60;0.90;;;18.10;70.40;;;;;;5033950;28;20104;-52
2023/10/27 10:19:52;;;;;;;1.95;1.00;;;18.10;70.40;;;;;;5032652;28;20618;-56
2023/10/27 10:22:42;;;;;;;1.30;1.08;;;18.10;70.40;;;;;;5016599;28;20032;-57
2023/10/27 10:25:21;;;;;;;2.40;1.05;;;18.10;70.40;;;;;;5031922;28;20437;-58
2023/10/27 10:28:08;;;;;;;3.95;1.20;;;18.10;70.40;;;;;;5037910;28;20511;-55
2023/10/27 10:30:38;;;;;;;3.70;0.90;;;18.10;70.30;;;;;;5032707;28;20048;-56
2023/10/27 10:33:16;;;;;;;1.52;0.90;;;18.10;70.40;;;;;;5034263;28;20426;-56
2023/10/27 10:35:49;;;;;;;3.72;1.00;;;18.10;70.40;;;;;;5032283;28;20035;-58
2023/10/27 10:38:24;;;;;;;1.20;0.98;;;18.10;70.40;;;;;;5036710;28;20029;-53
2023/10/27 10:40:50;;;;;;;0.95;0.77;;;18.10;70.50;;;;;;5027696;28;20030;-56
2023/10/27 10:43:27;;;;;;;1.95;1.00;;;18.10;70.40;;;;;;5029409;28;20029;-59
2023/10/27 10:45:53;;;;;;;1.35;0.80;;;18.10;70.40;;;;;;5027657;28;20060;-52
2023/10/27 10:48:21;;;;;;;1.63;1.15;;;18.10;70.30;;;;;;5030831;28;20401;-52
2023/10/27 10:50:48;;;;;;;3.63;0.93;;;18.10;70.30;;;;;;5033328;28;20061;-57
2023/10/27 10:53:15;;;;;;;2.30;0.90;;;18.10;70.30;;;;;;5036479;28;20689;-52
2023/10/27 10:55:48;;;;;;;1.25;1.05;;;18.10;70.30;;;;;;5034974;28;20421;-54
2023/10/27 10:58:24;;;;;;;1.38;0.80;;;18.10;70.40;;;;;;5034670;28;20168;-56
2023/10/27 11:00:50;;;;;;;2.55;1.13;;;18.10;70.50;;;;;;5032290;28;20051;-54
2023/10/27 11:03:17;;;;;;;1.42;1.00;;;18.10;70.30;;;;;;5033932;28;20036;-55
2023/10/27 11:05:43;;;;;;;2.42;1.13;;;18.10;70.30;;;;;;5033961;28;20434;-55
2023/10/27 11:08:08;;;;;;;1.73;1.00;;;18.10;70.40;;;;;;5027755;28;20025;-53
2023/10/27 11:10:35;;;;;;;1.00;0.88;;;18.10;70.30;;;;;;5030553;28;20056;-58
2023/10/27 11:13:04;;;;;;;1.77;0.80;;;18.10;70.40;;;;;;5035390;28;20040;-55
2023/10/27 11:15:45;;;;;;;1.00;0.70;;;18.10;70.30;;;;;;5024826;28;20041;-51
2023/10/27 11:18:14;;;;;;;3.22;0.90;;;18.10;70.40;;;;;;5029935;28;20026;-59
2023/10/27 11:20:40;;;;;;;1.02;0.90;;;18.10;70.50;;;;;;5027572;28;20044;-57
2023/10/27 11:23:13;;;;;;;1.35;0.90;;;18.10;70.40;;;;;;5035891;28;20036;-54
2023/10/27 11:25:43;;;;;;;0.93;0.73;;;18.10;70.40;;;;;;5031309;28;20033;-52
2023/10/27 11:28:28;;;;;;;2.90;0.93;;;18.10;71.00;;;;;;5032669;28;20033;-55
2023/10/27 11:31:17;;;;;;;1.02;0.85;;;18.10;70.40;;;;;;5026084;28;20159;-54
2023/10/27 11:34:05;;;;;;;1.30;0.80;;;18.10;70.30;;;;;;5036497;28;20562;-58
2023/10/27 11:36:47;;;;;;;1.48;1.05;;;18.10;70.40;;;;;;5033001;28;20999;-57
2023/10/27 11:39:13;;;;;;;2.05;0.77;;;18.10;70.30;;;;;;5031442;28;20115;-54
2023/10/27 11:41:39;;;;;;;1.00;0.70;;;18.10;70.40;;;;;;5027992;28;20029;-53
2023/10/27 11:44:05;;;;;;;1.17;0.80;;;18.10;70.40;;;;;;5030197;28;20033;-58
2023/10/27 11:46:30;;;;;;;1.02;0.70;;;18.10;70.30;;;;;;5034821;28;20048;-57
2023/10/27 11:48:56;;;;;;;0.65;0.65;;;18.10;70.30;;;;;;5032819;28;20060;-54
2023/10/27 11:51:21;;;;;;;1.17;0.70;;;18.10;70.30;;;;;;5031439;28;20364;-54
2023/10/27 11:53:47;;;;;;;0.90;0.80;;;18.10;70.30;;;;;;5028637;28;20041;-59
2023/10/27 11:56:13;;;;;;;1.27;1.00;;;18.10;70.30;;;;;;5032315;28;20038;-54
2023/10/27 11:58:39;;;;;;;1.38;0.73;;;18.10;70.40;;;;;;5033779;28;20139;-55
2023/10/27 12:01:05;;;;;;;1.02;0.68;;;18.10;70.30;;;;;;5018597;28;20033;-56
2023/10/27 12:03:30;;;;;;;1.17;0.80;;;18.10;70.40;;;;;;5033798;28;20115;-58
2023/10/27 12:05:56;;;;;;;1.20;0.80;;;18.10;70.40;;;;;;5034831;28;20124;-53
2023/10/27 12:08:23;;;;;;;1.25;1.08;;;18.10;70.30;;;;;;5032768;28;20063;-55
2023/10/27 12:10:52;;;;;;;1.45;0.90;;;18.10;70.30;;;;;;5023426;28;20499;-55
2023/10/27 12:13:22;;;;;;;1.30;1.10;;;18.10;70.30;;;;;;5028433;28;20494;-55
2023/10/27 12:15:48;;;;;;;2.15;1.33;;;18.10;70.30;;;;;;5026479;28;20437;-56
2023/10/27 12:18:19;;;;;;;1.60;0.80;;;18.10;70.30;;;;;;5032499;28;20037;-52
2023/10/27 12:20:45;;;;;;;1.42;0.80;;;18.10;70.30;;;;;;5031312;28;20453;-55
2023/10/27 12:23:11;;;;;;;1.60;0.93;;;18.10;70.30;;;;;;5031078;28;20037;-54
2023/10/27 12:25:37;;;;;;;1.10;0.77;;;18.10;70.30;;;;;;5031416;28;20048;-54
2023/10/27 12:28:03;;;;;;;0.95;0.90;;;18.10;70.30;;;;;;5032612;28;20032;-51
2023/10/27 12:30:30;;;;;;;0.80;0.80;;;18.10;70.30;;;;;;5033335;28;20037;-51
2023/10/27 12:32:59;;;;;;;0.90;0.90;;;18.10;70.30;;;;;;5033169;28;20613;-51
2023/10/27 12:35:27;;;;;;;1.00;0.90;;;18.10;70.30;;;;;;5030883;28;20158;-54
2023/10/27 12:37:53;;;;;;;2.30;1.08;;;18.10;70.30;;;;;;5033038;28;20131;-55
2023/10/27 12:40:24;;;;;;;2.00;1.42;;;18.10;70.30;;;;;;5028427;28;20033;-54
2023/10/27 12:42:50;;;;;;;1.50;1.23;;;18.10;70.20;;;;;;5024639;28;20037;-54
2023/10/27 12:45:16;;;;;;;1.50;1.27;;;18.10;70.20;;;;;;5026307;28;20033;-53
2023/10/27 12:47:46;;;;;;;1.25;1.15;;;18.10;70.10;;;;;;5030465;28;20511;-53
2023/10/27 12:50:12;;;;;;;1.25;1.05;;;18.10;70.20;;;;;;5025695;28;20159;-55